Time;durP1;ratioP1;P1;durP2;ratioP2;P2;SDS_P1;SDS_P2;PMS_P1;PMS_P2;Temp;Humidity;BMP_temperature;BMP_pressure;BME280_temperature;BME280_humidity;BME280_pressure;Samples;Min_cycle;Max_cycle;Signal;HPM_P1;HPM_P2
2020/12/15 00:00:07;;;;;;;32.37;14.77;;;8.80;99.90;;;;;;5036585;28;20183;-81
2020/12/15 00:02:33;;;;;;;27.73;14.20;;;8.80;99.90;;;;;;5036240;28;20208;-81
2020/12/15 00:04:58;;;;;;;25.97;13.80;;;8.90;99.90;;;;;;5054007;28;20675;-80
2020/12/15 00:07:24;;;;;;;29.00;14.07;;;8.80;99.90;;;;;;5036062;28;20202;-80
2020/12/15 00:09:49;;;;;;;30.57;15.37;;;8.80;99.90;;;;;;5036299;28;20205;-81
2020/12/15 00:12:15;;;;;;;26.57;14.13;;;8.80;99.90;;;;;;5036326;28;20175;-81
2020/12/15 00:14:40;;;;;;;25.60;14.50;;;8.80;99.90;;;;;;5036242;28;20727;-80
2020/12/15 00:17:06;;;;;;;27.23;13.57;;;8.80;99.90;;;;;;5036093;28;20560;-80
2020/12/15 00:19:32;;;;;;;24.53;13.43;;;8.80;99.90;;;;;;5036125;28;20181;-81
2020/12/15 00:21:57;;;;;;;28.17;13.47;;;8.80;99.90;;;;;;5035886;28;20665;-81
2020/12/15 00:24:23;;;;;;;28.70;14.37;;;8.80;99.90;;;;;;5053884;28;20189;-80
2020/12/15 00:26:48;;;;;;;31.23;14.60;;;8.80;99.90;;;;;;5035965;28;20179;-80
2020/12/15 00:29:16;;;;;;;29.83;14.63;;;8.80;99.90;;;;;;5036448;28;20553;-80
2020/12/15 00:31:42;;;;;;;28.57;14.17;;;8.80;99.90;;;;;;5035864;28;20190;-81
2020/12/15 00:34:07;;;;;;;29.83;15.57;;;8.80;99.90;;;;;;5036274;28;20176;-81
2020/12/15 00:36:33;;;;;;;29.33;14.10;;;8.80;99.90;;;;;;5035952;28;20211;-81
2020/12/15 00:38:58;;;;;;;28.47;14.33;;;8.70;99.90;;;;;;5035899;28;20210;-80
2020/12/15 00:41:24;;;;;;;27.47;14.80;;;8.70;99.90;;;;;;5035709;28;20179;-80
2020/12/15 00:43:50;;;;;;;25.17;14.30;;;8.70;99.90;;;;;;5035664;28;20255;-80
2020/12/15 00:46:16;;;;;;;27.23;14.03;;;8.70;99.90;;;;;;5034918;28;20241;-80
2020/12/15 00:48:42;;;;;;;27.47;14.27;;;8.70;99.90;;;;;;5036367;28;20266;-80
2020/12/15 00:51:12;;;;;;;26.93;14.13;;;8.70;99.90;;;;;;5036125;28;20214;-80
2020/12/15 00:53:38;;;;;;;25.00;13.67;;;8.70;99.90;;;;;;5035930;28;20203;-79
2020/12/15 00:56:05;;;;;;;29.47;15.40;;;8.70;99.90;;;;;;5035221;28;20607;-80
2020/12/15 00:58:30;;;;;;;26.03;13.47;;;8.60;99.90;;;;;;5035651;28;20192;-81
2020/12/15 01:00:56;;;;;;;24.80;13.50;;;8.70;99.90;;;;;;5035458;28;20187;-80
2020/12/15 01:03:21;;;;;;;27.57;14.00;;;8.60;99.90;;;;;;5053341;28;20199;-80
2020/12/15 01:05:47;;;;;;;26.37;14.23;;;8.60;99.90;;;;;;5035495;28;20195;-80
2020/12/15 01:08:12;;;;;;;24.80;13.70;;;8.60;99.90;;;;;;5052998;28;20180;-81
2020/12/15 01:10:38;;;;;;;26.77;14.70;;;8.60;99.90;;;;;;5035413;28;20546;-80
2020/12/15 01:13:03;;;;;;;27.77;14.87;;;8.60;99.90;;;;;;5035337;28;20214;-80
2020/12/15 01:15:29;;;;;;;26.33;14.87;;;8.60;99.90;;;;;;5035292;28;20207;-80
2020/12/15 01:17:54;;;;;;;25.27;13.60;;;8.60;99.90;;;;;;5035390;28;20195;-81
2020/12/15 01:20:20;;;;;;;25.60;15.13;;;8.60;99.90;;;;;;5035360;28;20182;-79
2020/12/15 01:22:45;;;;;;;24.43;13.70;;;8.60;99.90;;;;;;5034816;28;20616;-79
2020/12/15 01:25:11;;;;;;;24.60;14.77;;;8.60;99.90;;;;;;5035066;28;20249;-80
2020/12/15 01:27:36;;;;;;;26.23;14.47;;;8.60;99.90;;;;;;5034938;28;20179;-80
2020/12/15 01:30:03;;;;;;;29.73;15.57;;;8.60;99.90;;;;;;5035148;28;20178;-80
2020/12/15 01:32:29;;;;;;;25.20;14.43;;;8.60;99.90;;;;;;5035048;28;20179;-80
2020/12/15 01:34:54;;;;;;;25.20;13.40;;;8.50;99.90;;;;;;5035198;28;20203;-80
2020/12/15 01:37:20;;;;;;;29.07;14.60;;;8.50;99.90;;;;;;5034874;28;20564;-80
2020/12/15 01:39:45;;;;;;;26.23;15.03;;;8.60;99.90;;;;;;5035113;28;20171;-81
2020/12/15 01:42:11;;;;;;;23.53;12.90;;;8.50;99.90;;;;;;5034477;28;20202;-81
2020/12/15 01:44:37;;;;;;;21.80;11.70;;;8.50;99.90;;;;;;5034180;28;20242;-81
2020/12/15 01:47:03;;;;;;;23.87;12.23;;;8.50;99.90;;;;;;5034615;28;20182;-80
2020/12/15 01:49:29;;;;;;;21.53;12.13;;;8.40;99.90;;;;;;5034668;28;20175;-80
2020/12/15 01:51:55;;;;;;;23.63;12.77;;;8.40;99.90;;;;;;5034410;28;20664;-80
2020/12/15 01:54:21;;;;;;;22.03;12.60;;;8.40;99.90;;;;;;5034510;28;20551;-79
2020/12/15 01:56:46;;;;;;;21.47;11.87;;;8.40;99.90;;;;;;5034248;28;20703;-80
2020/12/15 01:59:14;;;;;;;24.13;11.77;;;8.40;99.90;;;;;;5034667;28;20269;-79
2020/12/15 02:01:46;;;;;;;23.60;11.70;;;8.40;99.90;;;;;;5034400;28;20187;-80
2020/12/15 02:04:13;;;;;;;20.43;10.63;;;8.40;99.90;;;;;;5034290;28;20171;-81
2020/12/15 02:06:40;;;;;;;21.80;11.07;;;8.40;99.90;;;;;;5034231;28;20199;-80
2020/12/15 02:09:06;;;;;;;17.70;10.23;;;8.30;99.90;;;;;;5034520;28;20179;-80
2020/12/15 02:11:32;;;;;;;18.67;10.33;;;8.40;99.90;;;;;;5034232;28;20181;-79
2020/12/15 02:13:58;;;;;;;17.43;10.17;;;8.40;99.90;;;;;;5037336;28;20619;-80
2020/12/15 02:16:24;;;;;;;18.63;11.33;;;8.30;99.90;;;;;;5038294;28;20590;-81
2020/12/15 02:18:49;;;;;;;18.57;9.80;;;8.30;99.90;;;;;;5038026;28;20186;-80
2020/12/15 02:21:15;;;;;;;16.33;9.13;;;8.30;99.90;;;;;;5037965;28;20175;-80
2020/12/15 02:23:41;;;;;;;17.43;10.40;;;8.30;99.90;;;;;;5038017;28;20245;-80
2020/12/15 02:26:08;;;;;;;17.40;9.97;;;8.30;99.90;;;;;;5037810;28;20642;-82
2020/12/15 02:28:34;;;;;;;16.77;9.43;;;8.30;99.90;;;;;;5055821;28;20254;-80
2020/12/15 02:31:00;;;;;;;19.83;10.67;;;8.30;99.90;;;;;;5038069;28;20259;-81
2020/12/15 02:33:26;;;;;;;17.03;9.57;;;8.30;99.90;;;;;;5037716;28;20180;-80
2020/12/15 02:35:52;;;;;;;17.53;9.27;;;8.30;99.90;;;;;;5037891;28;20200;-80
2020/12/15 02:38:17;;;;;;;16.90;9.60;;;8.20;99.90;;;;;;5038178;28;20286;-80
2020/12/15 02:40:43;;;;;;;17.87;10.40;;;8.20;99.90;;;;;;5037720;28;20183;-80
2020/12/15 02:43:08;;;;;;;15.83;8.97;;;8.20;99.90;;;;;;5037857;28;20297;-80
2020/12/15 02:45:34;;;;;;;17.80;8.73;;;8.20;99.90;;;;;;5055319;28;20274;-80
2020/12/15 02:47:59;;;;;;;14.37;7.90;;;8.20;99.90;;;;;;5037714;28;20631;-80
2020/12/15 02:50:26;;;;;;;16.73;9.10;;;8.20;99.90;;;;;;5037824;28;20205;-80
2020/12/15 02:52:51;;;;;;;15.40;8.10;;;8.20;99.90;;;;;;5055501;28;20176;-80
2020/12/15 02:55:17;;;;;;;13.33;7.93;;;8.20;99.90;;;;;;5056151;28;20261;-80
2020/12/15 02:57:43;;;;;;;13.37;7.93;;;8.20;99.90;;;;;;5037617;28;20183;-80
2020/12/15 03:00:12;;;;;;;17.30;9.00;;;8.20;99.90;;;;;;5037554;28;20689;-80
2020/12/15 03:02:37;;;;;;;16.73;9.10;;;8.20;99.90;;;;;;5037502;28;20211;-80
2020/12/15 03:05:04;;;;;;;12.73;8.23;;;8.20;99.90;;;;;;5037453;28;20210;-80
2020/12/15 03:07:31;;;;;;;12.17;7.10;;;8.20;99.90;;;;;;5037505;28;20656;-80
2020/12/15 03:09:56;;;;;;;14.03;8.00;;;8.20;99.90;;;;;;5037183;28;20266;-79
2020/12/15 03:12:22;;;;;;;16.07;8.93;;;8.20;99.90;;;;;;5055477;28;20682;-80
2020/12/15 03:14:48;;;;;;;16.00;7.87;;;8.30;99.90;;;;;;5037180;28;20199;-82
2020/12/15 03:17:15;;;;;;;13.00;8.37;;;8.30;99.90;;;;;;5036929;28;20203;-80
2020/12/15 03:19:41;;;;;;;14.13;8.27;;;8.30;99.90;;;;;;5055457;28;20186;-80
2020/12/15 03:22:07;;;;;;;14.00;8.17;;;8.20;99.90;;;;;;5036869;28;20570;-80
2020/12/15 03:24:32;;;;;;;14.77;8.07;;;8.20;99.90;;;;;;5035675;28;20186;-80
2020/12/15 03:26:58;;;;;;;13.73;7.67;;;8.20;99.90;;;;;;5037242;28;20262;-80
2020/12/15 03:29:23;;;;;;;15.73;7.90;;;8.20;99.90;;;;;;5054935;28;20584;-81
2020/12/15 03:31:49;;;;;;;14.30;8.17;;;8.20;99.90;;;;;;5037062;28;20179;-80
2020/12/15 03:34:14;;;;;;;13.23;7.57;;;8.20;99.90;;;;;;5036971;28;20180;-80
2020/12/15 03:36:39;;;;;;;12.53;7.03;;;8.20;99.90;;;;;;5036523;28;20196;-81
2020/12/15 03:39:06;;;;;;;13.73;8.03;;;8.20;99.90;;;;;;5036915;28;20642;-80
2020/12/15 03:41:32;;;;;;;13.43;7.27;;;8.20;99.90;;;;;;5036883;28;20183;-80
2020/12/15 03:43:58;;;;;;;13.50;7.77;;;8.20;99.90;;;;;;5036852;28;20167;-79
2020/12/15 03:46:23;;;;;;;14.33;7.90;;;8.20;99.90;;;;;;5036862;28;20215;-80
2020/12/15 03:48:49;;;;;;;12.20;7.47;;;8.20;99.90;;;;;;5036857;28;20236;-81
2020/12/15 03:51:14;;;;;;;14.20;7.40;;;8.20;99.90;;;;;;5036778;28;20271;-79
2020/12/15 03:53:40;;;;;;;15.53;8.83;;;8.20;99.90;;;;;;5036455;28;20278;-80
2020/12/15 03:56:05;;;;;;;14.00;7.70;;;8.10;99.90;;;;;;5036467;28;20196;-80
2020/12/15 03:58:31;;;;;;;13.33;8.27;;;8.10;99.90;;;;;;5036775;28;20176;-79
2020/12/15 04:00:56;;;;;;;15.57;8.87;;;8.10;99.90;;;;;;5036447;28;20184;-80
2020/12/15 04:03:21;;;;;;;14.77;7.93;;;8.10;99.90;;;;;;5036425;28;20215;-80
2020/12/15 04:05:47;;;;;;;16.07;9.33;;;8.10;99.90;;;;;;5036219;28;20191;-80
2020/12/15 04:08:12;;;;;;;15.10;7.90;;;8.10;99.90;;;;;;5036391;28;20183;-80
2020/12/15 04:10:38;;;;;;;15.53;8.40;;;8.10;99.90;;;;;;5036429;28;20180;-79
2020/12/15 04:13:03;;;;;;;16.90;9.30;;;8.10;99.90;;;;;;5036603;28;20221;-80
2020/12/15 04:15:29;;;;;;;13.60;8.30;;;8.10;99.90;;;;;;5053923;28;20232;-80
2020/12/15 04:17:54;;;;;;;14.27;7.93;;;8.10;99.90;;;;;;5035887;28;20289;-80
2020/12/15 04:20:21;;;;;;;15.00;8.53;;;8.10;99.90;;;;;;5036111;28;20183;-80
2020/12/15 04:22:46;;;;;;;14.87;8.37;;;8.10;99.90;;;;;;5038713;28;20210;-80
2020/12/15 04:25:12;;;;;;;15.33;8.53;;;8.00;99.90;;;;;;5055981;28;20295;-80
2020/12/15 04:27:37;;;;;;;15.23;8.57;;;8.10;99.90;;;;;;5055713;28;20182;-80
2020/12/15 04:30:05;;;;;;;18.23;9.07;;;8.10;99.90;;;;;;5073620;28;20173;-81
2020/12/15 04:32:31;;;;;;;14.93;8.20;;;8.10;99.90;;;;;;5055238;28;20273;-80
2020/12/15 04:34:56;;;;;;;14.93;9.10;;;8.10;99.90;;;;;;5055097;28;20632;-80
2020/12/15 04:37:22;;;;;;;17.30;8.70;;;8.10;99.90;;;;;;5054760;28;20245;-80
2020/12/15 04:39:47;;;;;;;16.17;9.13;;;8.10;99.90;;;;;;5055189;28;20269;-80
2020/12/15 04:42:14;;;;;;;16.63;8.63;;;8.10;99.90;;;;;;5054840;28;20214;-79
2020/12/15 04:44:40;;;;;;;15.53;8.50;;;8.10;99.90;;;;;;5054789;28;20195;-80
2020/12/15 04:47:23;;;;;;;16.40;8.20;;;8.10;99.90;;;;;;5054833;28;20229;-80
2020/12/15 04:49:59;;;;;;;19.47;9.37;;;8.10;99.90;;;;;;5055040;28;20186;-81
2020/12/15 04:52:38;;;;;;;14.10;8.83;;;8.10;99.90;;;;;;5054993;28;20171;-81
2020/12/15 04:55:03;;;;;;;13.83;7.87;;;8.10;99.90;;;;;;5054895;28;20252;-81
2020/12/15 04:57:31;;;;;;;13.00;7.73;;;8.10;99.90;;;;;;5054671;28;20178;-80
2020/12/15 04:59:59;;;;;;;12.00;7.50;;;8.10;99.90;;;;;;5055116;28;20183;-80
2020/12/15 05:02:25;;;;;;;14.73;8.10;;;8.10;99.90;;;;;;5072906;28;20206;-81
2020/12/15 05:04:51;;;;;;;13.40;8.13;;;8.10;99.90;;;;;;5054985;28;20546;-81
2020/12/15 05:07:16;;;;;;;14.67;8.23;;;8.10;99.90;;;;;;5054889;28;20183;-81
2020/12/15 05:09:42;;;;;;;14.57;8.40;;;8.20;99.90;;;;;;5055014;28;20265;-80
2020/12/15 05:12:07;;;;;;;15.87;8.77;;;8.10;99.90;;;;;;5055083;28;20205;-80
2020/12/15 05:14:33;;;;;;;15.60;8.53;;;8.20;99.90;;;;;;5072799;28;20546;-80
2020/12/15 05:16:59;;;;;;;14.97;8.73;;;8.20;99.90;;;;;;5054776;28;20191;-81
2020/12/15 05:19:24;;;;;;;13.33;8.07;;;8.10;99.90;;;;;;5054997;28;20178;-81
2020/12/15 05:21:53;;;;;;;17.57;9.80;;;8.10;99.90;;;;;;5072813;28;20281;-80
2020/12/15 05:24:22;;;;;;;16.83;10.10;;;8.10;99.90;;;;;;5054804;28;20178;-81
2020/12/15 05:26:47;;;;;;;15.03;8.57;;;8.10;99.90;;;;;;5072594;28;20248;-81
2020/12/15 05:29:17;;;;;;;18.13;10.10;;;8.10;99.90;;;;;;5058296;28;20644;-81
2020/12/15 05:31:43;;;;;;;17.37;10.30;;;8.10;99.90;;;;;;5039964;28;20189;-81
2020/12/15 05:34:13;;;;;;;15.77;8.07;;;8.10;99.90;;;;;;5053989;28;20182;-81
2020/12/15 05:36:53;;;;;;;17.23;9.30;;;8.10;99.90;;;;;;5038441;28;20286;-81
2020/12/15 05:39:19;;;;;;;20.60;13.50;;;8.10;99.90;;;;;;5034230;28;20541;-81
2020/12/15 05:41:45;;;;;;;21.77;12.10;;;8.10;99.90;;;;;;5050308;28;20649;-81
2020/12/15 05:44:13;;;;;;;16.87;10.37;;;8.00;99.90;;;;;;5054556;28;20177;-81
2020/12/15 05:46:46;;;;;;;16.50;10.00;;;8.00;99.90;;;;;;5054114;28;20669;-81
2020/12/15 05:49:13;;;;;;;17.10;9.90;;;8.00;99.90;;;;;;5054638;28;20159;-81
2020/12/15 05:51:44;;;;;;;16.63;9.50;;;8.00;99.90;;;;;;5054645;28;20171;-80
2020/12/15 05:54:13;;;;;;;16.63;9.87;;;8.00;99.90;;;;;;5054576;28;20179;-80
2020/12/15 05:56:40;;;;;;;16.97;9.50;;;8.00;99.90;;;;;;5054143;28;20672;-80
2020/12/15 05:59:20;;;;;;;18.87;9.77;;;8.00;99.90;;;;;;5054507;28;20644;-80
2020/12/15 06:01:53;;;;;;;17.63;9.20;;;8.00;99.90;;;;;;5054312;28;20166;-80
2020/12/15 06:04:19;;;;;;;19.50;11.40;;;8.00;99.90;;;;;;5047717;28;20210;-81
2020/12/15 06:06:46;;;;;;;16.77;10.07;;;8.00;99.90;;;;;;5037379;28;20248;-80
2020/12/15 06:09:15;;;;;;;16.20;9.20;;;8.00;99.90;;;;;;5042636;28;20171;-80
2020/12/15 06:11:43;;;;;;;18.17;10.70;;;8.00;99.90;;;;;;5048315;28;20175;-80
2020/12/15 06:14:10;;;;;;;16.30;9.90;;;8.00;99.90;;;;;;5052247;28;20218;-80
2020/12/15 06:16:36;;;;;;;16.00;8.93;;;8.00;99.90;;;;;;5033512;28;20257;-81
2020/12/15 06:22:11;;;;;;;15.13;8.73;;;8.00;99.90;;;;;;5056813;28;20276;-81
2020/12/15 06:24:40;;;;;;;14.77;8.47;;;8.10;99.90;;;;;;5058232;28;20170;-80
2020/12/15 06:27:09;;;;;;;15.90;9.13;;;8.10;99.90;;;;;;5060716;28;20191;-80
2020/12/15 06:29:37;;;;;;;14.70;8.70;;;8.10;99.90;;;;;;5052234;28;20270;-81
2020/12/15 06:32:22;;;;;;;12.90;7.40;;;8.00;99.90;;;;;;5034176;28;20212;-81
2020/12/15 06:34:50;;;;;;;16.17;8.80;;;8.00;99.90;;;;;;5037193;28;20215;-80
2020/12/15 06:37:21;;;;;;;13.00;7.43;;;8.10;99.90;;;;;;5036555;28;20220;-79
2020/12/15 06:40:04;;;;;;;14.07;8.97;;;8.00;99.90;;;;;;5035524;28;20594;-80
2020/12/15 06:42:29;;;;;;;14.90;8.80;;;8.10;99.90;;;;;;5045382;28;20215;-80
2020/12/15 06:45:07;;;;;;;16.53;8.43;;;8.00;99.90;;;;;;5051513;28;20205;-80
2020/12/15 06:47:37;;;;;;;15.30;8.87;;;8.00;99.90;;;;;;5054089;28;20173;-81
2020/12/15 06:50:18;;;;;;;16.80;9.20;;;8.00;99.90;;;;;;5046654;28;20182;-81
2020/12/15 06:52:46;;;;;;;13.63;8.10;;;8.00;99.90;;;;;;5064861;28;20191;-79
2020/12/15 06:55:11;;;;;;;19.13;10.13;;;8.00;99.90;;;;;;5036466;28;20222;-81
2020/12/15 06:57:38;;;;;;;15.63;9.47;;;7.90;99.90;;;;;;5050289;28;20268;-81
2020/12/15 07:00:11;;;;;;;15.33;9.00;;;7.90;99.90;;;;;;5052603;28;20179;-80
2020/12/15 07:02:52;;;;;;;15.00;8.47;;;7.90;99.90;;;;;;5051584;28;20304;-81
2020/12/15 07:05:25;;;;;;;15.53;9.40;;;8.00;99.90;;;;;;5038722;28;20230;-80
2020/12/15 07:07:55;;;;;;;14.17;8.53;;;7.90;99.90;;;;;;5054687;28;20179;-80
2020/12/15 07:10:25;;;;;;;16.87;9.23;;;8.00;99.90;;;;;;5066909;28;20661;-80
2020/12/15 07:12:51;;;;;;;16.07;8.80;;;8.00;99.90;;;;;;5050200;28;20183;-80
2020/12/15 07:15:18;;;;;;;16.87;9.93;;;8.00;99.90;;;;;;5049327;28;20203;-80
2020/12/15 07:17:48;;;;;;;14.27;8.90;;;7.90;99.90;;;;;;5042766;28;20328;-80
2020/12/15 07:20:15;;;;;;;15.50;8.77;;;7.90;99.90;;;;;;5056717;28;20317;-80
2020/12/15 07:22:41;;;;;;;16.07;9.07;;;7.90;99.90;;;;;;5048369;28;20210;-81
2020/12/15 07:25:10;;;;;;;14.57;8.17;;;7.90;99.90;;;;;;5048894;28;20204;-81
2020/12/15 07:27:38;;;;;;;14.83;7.80;;;8.00;99.90;;;;;;5055444;28;20269;-79
2020/12/15 07:30:12;;;;;;;16.60;8.83;;;7.90;99.90;;;;;;5047324;28;20176;-80
2020/12/15 07:32:38;;;;;;;15.07;9.17;;;7.90;99.90;;;;;;5050925;28;20713;-80
2020/12/15 07:35:07;;;;;;;17.00;10.23;;;7.80;99.90;;;;;;5037646;28;20618;-81
2020/12/15 07:37:42;;;;;;;17.00;9.57;;;7.80;99.90;;;;;;5047463;28;20206;-81
2020/12/15 07:40:13;;;;;;;18.20;9.57;;;7.80;99.90;;;;;;5060497;28;20183;-81
2020/12/15 07:42:40;;;;;;;16.97;9.30;;;7.80;99.90;;;;;;5041691;28;20203;-81
2020/12/15 07:45:08;;;;;;;17.33;8.77;;;7.70;99.90;;;;;;5043698;28;20293;-81
2020/12/15 07:47:43;;;;;;;16.83;8.53;;;7.70;99.90;;;;;;5056220;28;20167;-81
2020/12/15 07:50:10;;;;;;;17.73;10.10;;;7.80;99.90;;;;;;5046862;28;20250;-81
2020/12/15 07:52:37;;;;;;;14.37;8.57;;;7.80;99.90;;;;;;5040916;28;20191;-81
2020/12/15 07:55:07;;;;;;;15.23;8.83;;;7.80;99.90;;;;;;5047007;28;20210;-82
2020/12/15 07:57:34;;;;;;;15.40;8.70;;;7.80;99.90;;;;;;5070727;28;20592;-82
2020/12/15 08:00:05;;;;;;;15.97;9.33;;;7.80;99.90;;;;;;5051976;28;20194;-82
2020/12/15 08:02:30;;;;;;;15.20;9.20;;;7.80;99.90;;;;;;5041885;28;20215;-82
2020/12/15 08:05:08;;;;;;;17.07;9.17;;;7.70;99.90;;;;;;5040075;28;20198;-81
2020/12/15 08:07:47;;;;;;;15.30;8.37;;;7.60;99.90;;;;;;5047588;28;20187;-81
2020/12/15 08:10:14;;;;;;;15.77;8.40;;;7.60;99.90;;;;;;5038402;28;20644;-82
2020/12/15 08:12:41;;;;;;;14.23;7.93;;;7.60;99.90;;;;;;5056194;28;20179;-81
2020/12/15 08:15:08;;;;;;;12.77;7.17;;;7.70;99.90;;;;;;5055138;28;20669;-81
2020/12/15 08:17:34;;;;;;;13.53;7.67;;;7.70;99.90;;;;;;5051367;28;20581;-81
2020/12/15 08:20:07;;;;;;;13.10;7.03;;;7.70;99.90;;;;;;5043617;28;20270;-81
2020/12/15 08:23:04;;;;;;;16.33;8.57;;;7.80;99.90;;;;;;5049949;28;20723;-81
2020/12/15 08:25:29;;;;;;;13.00;8.00;;;7.70;99.90;;;;;;5045527;28;20195;-81
2020/12/15 08:28:13;;;;;;;13.20;7.80;;;7.70;99.90;;;;;;5067001;28;20223;-81
2020/12/15 08:30:57;;;;;;;13.53;7.60;;;7.70;99.90;;;;;;5040027;28;20183;-81
2020/12/15 08:33:28;;;;;;;14.80;8.20;;;7.70;99.90;;;;;;5035507;28;20654;-81
2020/12/15 08:35:56;;;;;;;13.33;7.83;;;7.70;99.90;;;;;;5065521;28;20207;-81
2020/12/15 08:38:25;;;;;;;14.37;7.73;;;7.70;99.90;;;;;;5045379;28;20764;-81
2020/12/15 08:40:56;;;;;;;13.33;7.63;;;7.80;99.90;;;;;;5053492;28;20168;-82
2020/12/15 08:43:22;;;;;;;13.57;8.53;;;7.80;99.90;;;;;;5034819;28;20218;-81
2020/12/15 08:45:48;;;;;;;15.83;8.30;;;7.80;99.90;;;;;;5055637;28;20242;-82
2020/12/15 08:48:21;;;;;;;14.47;8.00;;;7.70;99.90;;;;;;5047601;28;20207;-81
2020/12/15 08:50:48;;;;;;;12.47;6.83;;;7.70;99.90;;;;;;5036864;28;20228;-81
2020/12/15 08:53:15;;;;;;;13.57;7.83;;;7.70;99.90;;;;;;5054073;28;20193;-80
2020/12/15 08:55:42;;;;;;;13.73;8.30;;;7.80;99.90;;;;;;5047223;28;20685;-81
2020/12/15 08:58:09;;;;;;;12.37;7.90;;;7.80;99.90;;;;;;5053142;28;20186;-81
2020/12/15 09:00:44;;;;;;;12.83;8.00;;;7.80;99.90;;;;;;5053619;28;20671;-81
2020/12/15 09:03:14;;;;;;;18.87;8.67;;;7.70;99.90;;;;;;5038919;28;20201;-81
2020/12/15 09:06:08;;;;;;;16.37;8.53;;;7.80;99.90;;;;;;5067282;28;20203;-82
2020/12/15 09:09:02;;;;;;;17.47;9.37;;;7.80;99.90;;;;;;5034841;28;20284;-81
2020/12/15 09:11:27;;;;;;;15.37;9.23;;;7.80;99.90;;;;;;5038114;28;20173;-81
2020/12/15 09:14:01;;;;;;;15.23;9.80;;;7.80;99.90;;;;;;5043984;28;20178;-81
2020/12/15 09:16:34;;;;;;;13.10;7.83;;;7.70;99.90;;;;;;5047019;28;20223;-82
2020/12/15 09:19:17;;;;;;;13.20;8.37;;;7.70;99.90;;;;;;5042027;28;20257;-81
2020/12/15 09:21:58;;;;;;;17.13;10.27;;;7.70;99.90;;;;;;5043749;28;20185;-81
2020/12/15 09:24:23;;;;;;;17.53;9.63;;;7.80;99.90;;;;;;5050276;28;20258;-81
2020/12/15 09:26:49;;;;;;;15.57;8.67;;;7.80;99.90;;;;;;5039550;28;20188;-80
2020/12/15 09:29:15;;;;;;;17.17;8.97;;;7.80;99.90;;;;;;5064236;28;20184;-82
2020/12/15 09:31:41;;;;;;;15.77;9.07;;;7.80;99.90;;;;;;5041948;28;20313;-79
2020/12/15 09:34:07;;;;;;;13.87;8.47;;;7.80;99.90;;;;;;5047816;28;20195;-79
2020/12/15 09:36:33;;;;;;;13.43;8.13;;;7.80;99.90;;;;;;5062970;28;20209;-78
2020/12/15 09:38:58;;;;;;;17.33;9.30;;;7.90;99.90;;;;;;5045082;28;20179;-78
2020/12/15 09:41:24;;;;;;;16.87;9.53;;;7.80;99.90;;;;;;5042229;28;20204;-78
2020/12/15 09:43:50;;;;;;;21.23;10.67;;;7.80;99.90;;;;;;5039386;28;20290;-80
2020/12/15 09:46:16;;;;;;;18.07;9.80;;;7.80;99.90;;;;;;5059191;28;20198;-79
2020/12/15 09:48:41;;;;;;;16.20;8.93;;;7.80;99.90;;;;;;5068019;28;20664;-80
2020/12/15 09:51:11;;;;;;;18.17;10.17;;;7.80;99.90;;;;;;5047754;28;20175;-79
2020/12/15 09:53:36;;;;;;;16.70;9.83;;;7.90;99.90;;;;;;5036740;28;20633;-78
2020/12/15 09:56:02;;;;;;;17.67;9.90;;;7.80;99.90;;;;;;5060628;28;20246;-77
2020/12/15 09:58:28;;;;;;;18.30;10.63;;;7.90;99.90;;;;;;5038965;28;20179;-79
2020/12/15 10:00:54;;;;;;;19.37;11.33;;;7.90;99.90;;;;;;5046670;28;20341;-78
2020/12/15 10:03:19;;;;;;;19.10;11.33;;;7.80;99.90;;;;;;5063076;28;20190;-80
2020/12/15 10:05:45;;;;;;;18.53;10.77;;;7.90;99.90;;;;;;5055910;28;20251;-78
2020/12/15 10:08:11;;;;;;;19.57;11.73;;;7.80;99.90;;;;;;5047462;28;20185;-78
2020/12/15 10:10:36;;;;;;;20.03;11.90;;;7.80;99.90;;;;;;5050468;28;20171;-79
2020/12/15 10:13:02;;;;;;;21.17;11.63;;;7.80;99.90;;;;;;5034072;28;20183;-80
2020/12/15 10:15:28;;;;;;;20.00;12.43;;;7.80;99.90;;;;;;5060977;28;20209;-81
2020/12/15 10:17:53;;;;;;;22.77;12.30;;;7.90;99.90;;;;;;5066909;28;20206;-78
2020/12/15 10:20:19;;;;;;;19.53;11.40;;;7.80;99.90;;;;;;5063429;28;20191;-78
2020/12/15 14:48:33;;;;;;;22.13;12.27;;;8.70;99.90;;;;;;5043176;23;20196;-84
2020/12/15 15:01:25;;;;;;;38.17;14.87;;;8.80;99.90;;;;;;4952094;29;20174;-88
2020/12/15 16:39:47;;;;;;;20.20;10.97;;;8.80;99.90;;;;;;5089700;23;20232;-91
2020/12/15 18:14:11;;;;;;;10.33;5.87;;;8.90;99.90;;;;;;5963773;23;20160;-90
2020/12/15 18:16:40;;;;;;;12.37;6.37;;;8.90;99.90;;;;;;5001400;28;20244;-88
2020/12/15 19:04:56;;;;;;;13.63;6.53;;;8.80;99.90;;;;;;5873296;23;20244;-90
2020/12/15 19:17:03;;;;;;;15.23;9.20;;;8.80;99.90;;;;;;5144576;23;20273;-89
2020/12/15 21:09:00;;;;;;;74.07;20.10;;;9.00;99.90;;;;;;5305173;23;20252;-91
2020/12/15 21:52:29;;;;;;;37.40;14.30;;;8.90;99.90;;;;;;6136929;23;20184;-91
